sensor_id;sensor_type;location;lat;lon;timestamp;P1;durP1;ratioP1;P2;durP2;ratioP2
27804;SDS011;15183;51.350;11.102;2023-01-16T00:01:15;8.23;;;4.10;;
27804;SDS011;15183;51.350;11.102;2023-01-16T00:03:42;7.88;;;3.42;;
27804;SDS011;15183;51.350;11.102;2023-01-16T00:06:09;11.15;;;5.13;;
27804;SDS011;15183;51.350;11.102;2023-01-16T00:08:35;7.20;;;4.72;;
27804;SDS011;15183;51.350;11.102;2023-01-16T00:11:02;7.88;;;3.55;;
27804;SDS011;15183;51.350;11.102;2023-01-16T00:13:28;11.23;;;6.43;;
27804;SDS011;15183;51.350;11.102;2023-01-16T00:15:54;11.02;;;6.43;;
27804;SDS011;15183;51.350;11.102;2023-01-16T00:18:21;9.85;;;5.25;;
27804;SDS011;15183;51.350;11.102;2023-01-16T00:20:47;11.07;;;6.38;;
27804;SDS011;15183;51.350;11.102;2023-01-16T00:23:14;9.80;;;5.03;;
27804;SDS011;15183;51.350;11.102;2023-01-16T00:25:41;4.55;;;3.05;;
27804;SDS011;15183;51.350;11.102;2023-01-16T00:28:09;8.77;;;3.65;;
27804;SDS011;15183;51.350;11.102;2023-01-16T00:30:36;5.38;;;4.03;;
27804;SDS011;15183;51.350;11.102;2023-01-16T00:33:03;11.50;;;6.75;;
27804;SDS011;15183;51.350;11.102;2023-01-16T00:35:31;8.65;;;5.75;;
27804;SDS011;15183;51.350;11.102;2023-01-16T00:37:58;7.53;;;4.65;;
27804;SDS011;15183;51.350;11.102;2023-01-16T00:40:24;8.82;;;4.18;;
27804;SDS011;15183;51.350;11.102;2023-01-16T00:42:51;8.02;;;3.75;;
27804;SDS011;15183;51.350;11.102;2023-01-16T00:45:18;7.80;;;3.22;;
27804;SDS011;15183;51.350;11.102;2023-01-16T00:47:44;7.15;;;3.92;;
27804;SDS011;15183;51.350;11.102;2023-01-16T00:50:11;5.50;;;3.28;;
27804;SDS011;15183;51.350;11.102;2023-01-16T00:52:37;8.20;;;5.68;;
27804;SDS011;15183;51.350;11.102;2023-01-16T00:55:04;6.05;;;3.13;;
27804;SDS011;15183;51.350;11.102;2023-01-16T00:57:30;5.38;;;3.38;;
27804;SDS011;15183;51.350;11.102;2023-01-16T00:59:57;3.97;;;2.75;;
27804;SDS011;15183;51.350;11.102;2023-01-16T01:02:23;13.80;;;7.70;;
27804;SDS011;15183;51.350;11.102;2023-01-16T01:04:50;13.70;;;7.40;;
27804;SDS011;15183;51.350;11.102;2023-01-16T01:07:16;12.48;;;7.60;;
27804;SDS011;15183;51.350;11.102;2023-01-16T01:09:42;16.50;;;9.07;;
27804;SDS011;15183;51.350;11.102;2023-01-16T01:12:09;7.07;;;4.20;;
27804;SDS011;15183;51.350;11.102;2023-01-16T01:14:35;13.40;;;6.85;;
27804;SDS011;15183;51.350;11.102;2023-01-16T01:17:02;13.55;;;7.03;;
27804;SDS011;15183;51.350;11.102;2023-01-16T01:19:28;13.88;;;8.38;;
27804;SDS011;15183;51.350;11.102;2023-01-16T01:21:54;5.00;;;3.42;;
27804;SDS011;15183;51.350;11.102;2023-01-16T01:24:21;8.10;;;4.32;;
27804;SDS011;15183;51.350;11.102;2023-01-16T01:26:47;5.32;;;3.33;;
27804;SDS011;15183;51.350;11.102;2023-01-16T01:29:14;4.10;;;2.67;;
27804;SDS011;15183;51.350;11.102;2023-01-16T01:31:40;7.70;;;4.43;;
27804;SDS011;15183;51.350;11.102;2023-01-16T01:34:06;9.88;;;6.22;;
27804;SDS011;15183;51.350;11.102;2023-01-16T01:36:33;6.72;;;3.65;;
27804;SDS011;15183;51.350;11.102;2023-01-16T01:38:59;10.05;;;5.50;;
27804;SDS011;15183;51.350;11.102;2023-01-16T01:41:26;5.88;;;3.80;;
27804;SDS011;15183;51.350;11.102;2023-01-16T01:43:53;10.30;;;6.35;;
27804;SDS011;15183;51.350;11.102;2023-01-16T01:49:20;10.15;;;5.18;;
27804;SDS011;15183;51.350;11.102;2023-01-16T01:51:53;8.23;;;4.32;;
27804;SDS011;15183;51.350;11.102;2023-01-16T01:54:25;7.32;;;3.72;;
27804;SDS011;15183;51.350;11.102;2023-01-16T01:57:15;6.68;;;4.43;;
27804;SDS011;15183;51.350;11.102;2023-01-16T01:59:53;6.57;;;4.47;;
27804;SDS011;15183;51.350;11.102;2023-01-16T02:02:26;4.10;;;2.60;;
27804;SDS011;15183;51.350;11.102;2023-01-16T02:05:02;5.27;;;3.40;;
27804;SDS011;15183;51.350;11.102;2023-01-16T02:07:31;3.53;;;1.75;;
27804;SDS011;15183;51.350;11.102;2023-01-16T02:10:02;5.05;;;3.45;;
27804;SDS011;15183;51.350;11.102;2023-01-16T02:12:45;1.33;;;1.08;;
27804;SDS011;15183;51.350;11.102;2023-01-16T02:15:12;7.97;;;4.50;;
27804;SDS011;15183;51.350;11.102;2023-01-16T02:17:48;11.48;;;7.38;;
27804;SDS011;15183;51.350;11.102;2023-01-16T02:20:36;4.45;;;3.03;;
27804;SDS011;15183;51.350;11.102;2023-01-16T02:29:25;5.90;;;2.83;;
27804;SDS011;15183;51.350;11.102;2023-01-16T02:40:42;6.78;;;4.35;;
27804;SDS011;15183;51.350;11.102;2023-01-16T02:43:33;10.35;;;6.05;;
27804;SDS011;15183;51.350;11.102;2023-01-16T02:46:31;8.30;;;5.40;;
27804;SDS011;15183;51.350;11.102;2023-01-16T02:49:19;9.30;;;5.18;;
27804;SDS011;15183;51.350;11.102;2023-01-16T02:51:56;8.23;;;4.70;;
27804;SDS011;15183;51.350;11.102;2023-01-16T02:54:47;4.50;;;2.60;;
27804;SDS011;15183;51.350;11.102;2023-01-16T02:57:25;7.07;;;4.88;;
27804;SDS011;15183;51.350;11.102;2023-01-16T02:59:57;5.30;;;3.58;;
27804;SDS011;15183;51.350;11.102;2023-01-16T03:02:23;5.75;;;4.07;;
27804;SDS011;15183;51.350;11.102;2023-01-16T03:04:50;5.38;;;2.75;;
27804;SDS011;15183;51.350;11.102;2023-01-16T03:07:21;8.55;;;5.40;;
27804;SDS011;15183;51.350;11.102;2023-01-16T03:21:53;6.50;;;3.67;;
27804;SDS011;15183;51.350;11.102;2023-01-16T03:24:54;10.15;;;5.45;;
27804;SDS011;15183;51.350;11.102;2023-01-16T03:27:39;7.22;;;3.33;;
27804;SDS011;15183;51.350;11.102;2023-01-16T03:30:55;5.47;;;3.25;;
27804;SDS011;15183;51.350;11.102;2023-01-16T03:34:09;5.13;;;2.83;;
27804;SDS011;15183;51.350;11.102;2023-01-16T03:37:16;4.68;;;3.17;;
27804;SDS011;15183;51.350;11.102;2023-01-16T03:39:51;5.78;;;2.80;;
27804;SDS011;15183;51.350;11.102;2023-01-16T03:42:29;7.03;;;4.40;;
27804;SDS011;15183;51.350;11.102;2023-01-16T03:45:09;8.93;;;5.70;;
27804;SDS011;15183;51.350;11.102;2023-01-16T03:48:10;3.42;;;2.13;;
27804;SDS011;15183;51.350;11.102;2023-01-16T03:50:45;8.57;;;6.00;;
27804;SDS011;15183;51.350;11.102;2023-01-16T03:53:17;9.43;;;5.63;;
27804;SDS011;15183;51.350;11.102;2023-01-16T03:56:01;7.47;;;4.82;;
27804;SDS011;15183;51.350;11.102;2023-01-16T03:58:57;6.47;;;3.95;;
27804;SDS011;15183;51.350;11.102;2023-01-16T04:04:06;4.55;;;3.28;;
27804;SDS011;15183;51.350;11.102;2023-01-16T04:07:01;4.80;;;2.88;;
27804;SDS011;15183;51.350;11.102;2023-01-16T04:09:36;8.40;;;5.78;;
27804;SDS011;15183;51.350;11.102;2023-01-16T04:14:40;4.43;;;3.03;;
27804;SDS011;15183;51.350;11.102;2023-01-16T04:17:07;8.10;;;3.75;;
27804;SDS011;15183;51.350;11.102;2023-01-16T04:19:34;1.80;;;1.52;;
27804;SDS011;15183;51.350;11.102;2023-01-16T04:22:08;2.72;;;1.70;;
27804;SDS011;15183;51.350;11.102;2023-01-16T04:24:45;2.70;;;1.83;;
27804;SDS011;15183;51.350;11.102;2023-01-16T04:27:12;5.82;;;3.88;;
27804;SDS011;15183;51.350;11.102;2023-01-16T04:29:38;8.48;;;5.32;;
27804;SDS011;15183;51.350;11.102;2023-01-16T04:32:04;4.18;;;2.83;;
27804;SDS011;15183;51.350;11.102;2023-01-16T04:34:31;3.63;;;1.75;;
27804;SDS011;15183;51.350;11.102;2023-01-16T04:37:00;5.88;;;3.92;;
27804;SDS011;15183;51.350;11.102;2023-01-16T04:39:26;3.72;;;1.73;;
27804;SDS011;15183;51.350;11.102;2023-01-16T04:41:53;4.95;;;3.85;;
27804;SDS011;15183;51.350;11.102;2023-01-16T04:44:19;4.60;;;2.08;;
27804;SDS011;15183;51.350;11.102;2023-01-16T04:46:46;2.90;;;2.17;;
27804;SDS011;15183;51.350;11.102;2023-01-16T04:49:12;3.00;;;1.63;;
27804;SDS011;15183;51.350;11.102;2023-01-16T04:51:38;5.22;;;3.13;;
27804;SDS011;15183;51.350;11.102;2023-01-16T04:54:05;3.60;;;1.35;;
27804;SDS011;15183;51.350;11.102;2023-01-16T04:56:33;2.60;;;1.10;;
27804;SDS011;15183;51.350;11.102;2023-01-16T04:58:59;3.70;;;1.73;;
27804;SDS011;15183;51.350;11.102;2023-01-16T05:01:26;5.65;;;3.53;;
27804;SDS011;15183;51.350;11.102;2023-01-16T05:03:53;3.03;;;2.08;;
27804;SDS011;15183;51.350;11.102;2023-01-16T05:06:19;1.38;;;1.20;;
27804;SDS011;15183;51.350;11.102;2023-01-16T05:08:45;3.38;;;1.17;;
27804;SDS011;15183;51.350;11.102;2023-01-16T05:11:12;3.30;;;1.23;;
27804;SDS011;15183;51.350;11.102;2023-01-16T05:13:38;3.88;;;1.52;;
27804;SDS011;15183;51.350;11.102;2023-01-16T05:16:05;1.00;;;0.93;;
27804;SDS011;15183;51.350;11.102;2023-01-16T05:18:31;1.55;;;0.88;;
27804;SDS011;15183;51.350;11.102;2023-01-16T05:20:58;1.73;;;1.00;;
27804;SDS011;15183;51.350;11.102;2023-01-16T05:23:25;1.80;;;1.25;;
27804;SDS011;15183;51.350;11.102;2023-01-16T05:25:51;2.92;;;0.90;;
27804;SDS011;15183;51.350;11.102;2023-01-16T05:28:19;4.15;;;1.48;;
27804;SDS011;15183;51.350;11.102;2023-01-16T05:30:49;1.65;;;1.05;;
27804;SDS011;15183;51.350;11.102;2023-01-16T05:33:15;2.55;;;1.50;;
27804;SDS011;15183;51.350;11.102;2023-01-16T05:35:42;3.00;;;0.90;;
27804;SDS011;15183;51.350;11.102;2023-01-16T05:38:10;2.78;;;1.40;;
27804;SDS011;15183;51.350;11.102;2023-01-16T05:40:37;2.60;;;0.98;;
27804;SDS011;15183;51.350;11.102;2023-01-16T05:43:03;1.98;;;1.05;;
27804;SDS011;15183;51.350;11.102;2023-01-16T05:45:30;4.13;;;1.75;;
27804;SDS011;15183;51.350;11.102;2023-01-16T05:47:57;3.60;;;1.48;;
27804;SDS011;15183;51.350;11.102;2023-01-16T05:50:24;5.30;;;2.08;;
27804;SDS011;15183;51.350;11.102;2023-01-16T05:52:50;3.65;;;2.03;;
27804;SDS011;15183;51.350;11.102;2023-01-16T05:55:17;2.20;;;1.20;;
27804;SDS011;15183;51.350;11.102;2023-01-16T05:57:43;3.63;;;1.80;;
27804;SDS011;15183;51.350;11.102;2023-01-16T06:00:10;2.80;;;1.45;;
27804;SDS011;15183;51.350;11.102;2023-01-16T06:02:37;2.85;;;1.20;;
27804;SDS011;15183;51.350;11.102;2023-01-16T06:05:03;4.10;;;1.05;;
27804;SDS011;15183;51.350;11.102;2023-01-16T06:07:31;2.03;;;1.27;;
27804;SDS011;15183;51.350;11.102;2023-01-16T06:09:57;2.95;;;1.08;;
27804;SDS011;15183;51.350;11.102;2023-01-16T06:12:23;2.92;;;1.10;;
27804;SDS011;15183;51.350;11.102;2023-01-16T06:14:50;2.30;;;1.23;;
27804;SDS011;15183;51.350;11.102;2023-01-16T06:17:17;3.63;;;1.80;;
27804;SDS011;15183;51.350;11.102;2023-01-16T06:19:44;3.72;;;1.83;;
27804;SDS011;15183;51.350;11.102;2023-01-16T06:22:12;5.28;;;2.85;;
27804;SDS011;15183;51.350;11.102;2023-01-16T06:24:38;3.58;;;1.75;;
27804;SDS011;15183;51.350;11.102;2023-01-16T06:27:05;2.28;;;1.33;;
27804;SDS011;15183;51.350;11.102;2023-01-16T06:29:32;3.50;;;1.27;;
27804;SDS011;15183;51.350;11.102;2023-01-16T06:31:59;3.63;;;1.02;;
27804;SDS011;15183;51.350;11.102;2023-01-16T06:34:25;2.15;;;1.20;;
27804;SDS011;15183;51.350;11.102;2023-01-16T06:36:52;4.22;;;2.05;;
27804;SDS011;15183;51.350;11.102;2023-01-16T06:39:18;4.60;;;2.35;;
27804;SDS011;15183;51.350;11.102;2023-01-16T06:41:44;4.15;;;1.33;;
27804;SDS011;15183;51.350;11.102;2023-01-16T06:44:11;1.60;;;1.00;;
27804;SDS011;15183;51.350;11.102;2023-01-16T06:46:37;4.28;;;2.50;;
27804;SDS011;15183;51.350;11.102;2023-01-16T06:49:04;4.78;;;1.45;;
27804;SDS011;15183;51.350;11.102;2023-01-16T06:51:30;7.50;;;3.20;;
27804;SDS011;15183;51.350;11.102;2023-01-16T06:53:56;3.92;;;2.33;;
27804;SDS011;15183;51.350;11.102;2023-01-16T06:56:23;4.50;;;2.28;;
27804;SDS011;15183;51.350;11.102;2023-01-16T06:58:49;5.82;;;1.65;;
27804;SDS011;15183;51.350;11.102;2023-01-16T07:01:16;6.20;;;1.95;;
27804;SDS011;15183;51.350;11.102;2023-01-16T07:03:42;2.28;;;1.35;;
27804;SDS011;15183;51.350;11.102;2023-01-16T07:06:09;1.92;;;1.23;;
27804;SDS011;15183;51.350;11.102;2023-01-16T07:08:38;3.33;;;1.30;;
27804;SDS011;15183;51.350;11.102;2023-01-16T07:11:05;3.28;;;1.25;;
27804;SDS011;15183;51.350;11.102;2023-01-16T07:13:31;2.55;;;1.73;;
27804;SDS011;15183;51.350;11.102;2023-01-16T07:15:58;8.55;;;3.72;;
27804;SDS011;15183;51.350;11.102;2023-01-16T07:18:44;4.22;;;1.55;;
27804;SDS011;15183;51.350;11.102;2023-01-16T07:21:28;4.38;;;2.10;;
27804;SDS011;15183;51.350;11.102;2023-01-16T07:24:17;8.48;;;1.42;;
27804;SDS011;15183;51.350;11.102;2023-01-16T07:26:50;2.42;;;1.02;;
27804;SDS011;15183;51.350;11.102;2023-01-16T07:29:23;5.47;;;1.50;;
27804;SDS011;15183;51.350;11.102;2023-01-16T07:31:51;3.85;;;1.20;;
27804;SDS011;15183;51.350;11.102;2023-01-16T07:34:18;4.22;;;2.08;;
27804;SDS011;15183;51.350;11.102;2023-01-16T07:36:44;3.28;;;1.45;;
27804;SDS011;15183;51.350;11.102;2023-01-16T07:39:11;4.55;;;1.42;;
27804;SDS011;15183;51.350;11.102;2023-01-16T07:41:37;3.35;;;1.50;;
27804;SDS011;15183;51.350;11.102;2023-01-16T07:44:03;4.35;;;2.33;;
27804;SDS011;15183;51.350;11.102;2023-01-16T07:46:31;2.15;;;1.58;;
27804;SDS011;15183;51.350;11.102;2023-01-16T07:48:58;5.05;;;1.77;;
27804;SDS011;15183;51.350;11.102;2023-01-16T07:51:24;4.85;;;1.90;;
27804;SDS011;15183;51.350;11.102;2023-01-16T07:53:51;5.68;;;1.88;;
27804;SDS011;15183;51.350;11.102;2023-01-16T07:56:18;4.18;;;2.00;;
27804;SDS011;15183;51.350;11.102;2023-01-16T07:58:44;9.90;;;4.97;;
27804;SDS011;15183;51.350;11.102;2023-01-16T08:01:11;5.20;;;2.40;;
27804;SDS011;15183;51.350;11.102;2023-01-16T08:03:37;8.90;;;4.18;;
27804;SDS011;15183;51.350;11.102;2023-01-16T08:06:04;3.97;;;2.03;;
27804;SDS011;15183;51.350;11.102;2023-01-16T08:08:31;9.10;;;1.67;;
27804;SDS011;15183;51.350;11.102;2023-01-16T08:10:58;2.53;;;0.98;;
27804;SDS011;15183;51.350;11.102;2023-01-16T08:13:46;3.08;;;1.33;;
27804;SDS011;15183;51.350;11.102;2023-01-16T08:16:12;2.17;;;1.00;;
27804;SDS011;15183;51.350;11.102;2023-01-16T08:18:39;4.07;;;1.38;;
27804;SDS011;15183;51.350;11.102;2023-01-16T08:21:05;4.75;;;1.83;;
27804;SDS011;15183;51.350;11.102;2023-01-16T08:23:31;3.65;;;1.02;;
27804;SDS011;15183;51.350;11.102;2023-01-16T08:25:58;5.15;;;2.53;;
27804;SDS011;15183;51.350;11.102;2023-01-16T08:28:26;16.58;;;8.50;;
27804;SDS011;15183;51.350;11.102;2023-01-16T08:30:52;7.57;;;2.80;;
27804;SDS011;15183;51.350;11.102;2023-01-16T08:33:19;9.50;;;5.15;;
27804;SDS011;15183;51.350;11.102;2023-01-16T08:35:45;5.65;;;2.13;;
27804;SDS011;15183;51.350;11.102;2023-01-16T08:38:12;5.25;;;1.58;;
27804;SDS011;15183;51.350;11.102;2023-01-16T08:40:38;3.45;;;1.40;;
27804;SDS011;15183;51.350;11.102;2023-01-16T08:43:05;2.55;;;1.30;;
27804;SDS011;15183;51.350;11.102;2023-01-16T08:45:51;3.30;;;1.42;;
27804;SDS011;15183;51.350;11.102;2023-01-16T08:48:52;16.40;;;9.13;;
27804;SDS011;15183;51.350;11.102;2023-01-16T08:51:37;10.25;;;5.35;;
27804;SDS011;15183;51.350;11.102;2023-01-16T08:54:04;18.52;;;11.10;;
27804;SDS011;15183;51.350;11.102;2023-01-16T08:56:31;20.58;;;10.80;;
27804;SDS011;15183;51.350;11.102;2023-01-16T08:58:57;7.78;;;4.13;;
27804;SDS011;15183;51.350;11.102;2023-01-16T09:01:23;19.63;;;9.63;;
27804;SDS011;15183;51.350;11.102;2023-01-16T09:03:50;9.90;;;5.53;;
27804;SDS011;15183;51.350;11.102;2023-01-16T09:06:17;36.33;;;18.45;;
27804;SDS011;15183;51.350;11.102;2023-01-16T09:08:43;24.67;;;13.93;;
27804;SDS011;15183;51.350;11.102;2023-01-16T09:11:10;23.30;;;11.73;;
27804;SDS011;15183;51.350;11.102;2023-01-16T09:13:54;31.38;;;17.05;;
27804;SDS011;15183;51.350;11.102;2023-01-16T09:16:25;14.68;;;8.13;;
27804;SDS011;15183;51.350;11.102;2023-01-16T09:18:52;9.98;;;5.20;;
27804;SDS011;15183;51.350;11.102;2023-01-16T09:21:19;14.52;;;8.23;;
27804;SDS011;15183;51.350;11.102;2023-01-16T09:23:45;10.38;;;5.50;;
27804;SDS011;15183;51.350;11.102;2023-01-16T09:26:12;6.90;;;3.65;;
27804;SDS011;15183;51.350;11.102;2023-01-16T09:28:38;8.75;;;2.63;;
27804;SDS011;15183;51.350;11.102;2023-01-16T09:31:05;9.98;;;4.95;;
27804;SDS011;15183;51.350;11.102;2023-01-16T09:33:32;14.23;;;7.68;;
27804;SDS011;15183;51.350;11.102;2023-01-16T09:35:58;7.68;;;4.90;;
27804;SDS011;15183;51.350;11.102;2023-01-16T09:38:24;26.30;;;14.00;;
27804;SDS011;15183;51.350;11.102;2023-01-16T09:40:56;9.07;;;4.80;;
27804;SDS011;15183;51.350;11.102;2023-01-16T09:43:31;8.70;;;4.45;;
27804;SDS011;15183;51.350;11.102;2023-01-16T09:46:08;8.55;;;3.47;;
27804;SDS011;15183;51.350;11.102;2023-01-16T09:48:51;14.68;;;7.20;;
27804;SDS011;15183;51.350;11.102;2023-01-16T09:51:38;18.20;;;9.13;;
27804;SDS011;15183;51.350;11.102;2023-01-16T09:54:32;18.38;;;10.00;;
27804;SDS011;15183;51.350;11.102;2023-01-16T09:57:23;8.07;;;4.00;;
27804;SDS011;15183;51.350;11.102;2023-01-16T10:00:13;18.88;;;11.00;;
27804;SDS011;15183;51.350;11.102;2023-01-16T10:02:43;15.95;;;8.88;;
27804;SDS011;15183;51.350;11.102;2023-01-16T10:05:09;12.30;;;7.07;;
27804;SDS011;15183;51.350;11.102;2023-01-16T10:07:41;12.80;;;6.97;;
27804;SDS011;15183;51.350;11.102;2023-01-16T10:16:20;11.65;;;7.07;;
27804;SDS011;15183;51.350;11.102;2023-01-16T10:22:15;12.57;;;4.63;;
27804;SDS011;15183;51.350;11.102;2023-01-16T10:30:53;8.23;;;3.78;;
27804;SDS011;15183;51.350;11.102;2023-01-16T10:33:33;11.65;;;5.97;;
27804;SDS011;15183;51.350;11.102;2023-01-16T10:36:05;18.17;;;9.13;;
27804;SDS011;15183;51.350;11.102;2023-01-16T10:38:37;11.18;;;6.45;;
27804;SDS011;15183;51.350;11.102;2023-01-16T10:44:37;4.20;;;2.15;;
27804;SDS011;15183;51.350;11.102;2023-01-16T10:50:18;9.80;;;5.65;;
27804;SDS011;15183;51.350;11.102;2023-01-16T10:52:48;14.80;;;8.15;;
27804;SDS011;15183;51.350;11.102;2023-01-16T10:55:15;23.58;;;12.85;;
27804;SDS011;15183;51.350;11.102;2023-01-16T10:57:44;9.82;;;5.15;;
27804;SDS011;15183;51.350;11.102;2023-01-16T11:00:19;11.48;;;5.35;;
27804;SDS011;15183;51.350;11.102;2023-01-16T11:03:30;6.13;;;3.33;;
27804;SDS011;15183;51.350;11.102;2023-01-16T11:06:30;18.83;;;10.65;;
27804;SDS011;15183;51.350;11.102;2023-01-16T11:11:40;7.72;;;4.15;;
27804;SDS011;15183;51.350;11.102;2023-01-16T11:14:36;14.32;;;7.28;;
27804;SDS011;15183;51.350;11.102;2023-01-16T11:17:27;12.85;;;6.97;;
27804;SDS011;15183;51.350;11.102;2023-01-16T11:20:31;9.15;;;4.80;;
27804;SDS011;15183;51.350;11.102;2023-01-16T11:23:04;8.13;;;4.68;;
27804;SDS011;15183;51.350;11.102;2023-01-16T11:25:49;11.18;;;5.25;;
27804;SDS011;15183;51.350;11.102;2023-01-16T11:28:28;12.85;;;6.78;;
27804;SDS011;15183;51.350;11.102;2023-01-16T11:30:57;17.85;;;9.95;;
27804;SDS011;15183;51.350;11.102;2023-01-16T11:33:33;13.00;;;8.20;;
27804;SDS011;15183;51.350;11.102;2023-01-16T11:36:09;20.52;;;12.27;;
27804;SDS011;15183;51.350;11.102;2023-01-16T11:38:37;20.52;;;11.20;;
27804;SDS011;15183;51.350;11.102;2023-01-16T11:41:08;26.73;;;15.18;;
27804;SDS011;15183;51.350;11.102;2023-01-16T11:43:36;12.48;;;7.32;;
27804;SDS011;15183;51.350;11.102;2023-01-16T11:48:58;15.35;;;8.10;;
27804;SDS011;15183;51.350;11.102;2023-01-16T11:51:28;19.05;;;11.02;;
27804;SDS011;15183;51.350;11.102;2023-01-16T11:53:58;8.70;;;5.18;;
27804;SDS011;15183;51.350;11.102;2023-01-16T11:59:40;9.00;;;4.35;;
27804;SDS011;15183;51.350;11.102;2023-01-16T12:08:25;13.00;;;6.93;;
27804;SDS011;15183;51.350;11.102;2023-01-16T12:14:30;5.78;;;4.53;;
27804;SDS011;15183;51.350;11.102;2023-01-16T12:25:59;21.58;;;12.75;;
27804;SDS011;15183;51.350;11.102;2023-01-16T12:28:31;19.90;;;10.82;;
27804;SDS011;15183;51.350;11.102;2023-01-16T12:40:35;6.68;;;3.97;;
27804;SDS011;15183;51.350;11.102;2023-01-16T12:46:34;13.60;;;6.72;;
27804;SDS011;15183;51.350;11.102;2023-01-16T12:49:40;8.23;;;6.18;;
27804;SDS011;15183;51.350;11.102;2023-01-16T12:52:39;8.63;;;4.53;;
27804;SDS011;15183;51.350;11.102;2023-01-16T12:55:31;4.75;;;2.85;;
27804;SDS011;15183;51.350;11.102;2023-01-16T12:58:30;11.35;;;6.57;;
27804;SDS011;15183;51.350;11.102;2023-01-16T13:01:06;14.82;;;8.10;;
27804;SDS011;15183;51.350;11.102;2023-01-16T13:03:53;13.90;;;8.48;;
27804;SDS011;15183;51.350;11.102;2023-01-16T13:06:34;14.52;;;8.35;;
27804;SDS011;15183;51.350;11.102;2023-01-16T13:09:18;6.32;;;4.07;;
27804;SDS011;15183;51.350;11.102;2023-01-16T13:12:15;9.60;;;5.72;;
27804;SDS011;15183;51.350;11.102;2023-01-16T13:15:12;8.25;;;5.03;;
27804;SDS011;15183;51.350;11.102;2023-01-16T13:18:06;7.80;;;4.68;;
27804;SDS011;15183;51.350;11.102;2023-01-16T13:20:45;29.73;;;12.68;;
27804;SDS011;15183;51.350;11.102;2023-01-16T13:23:17;23.33;;;11.70;;
27804;SDS011;15183;51.350;11.102;2023-01-16T13:25:56;17.60;;;9.45;;
27804;SDS011;15183;51.350;11.102;2023-01-16T13:34:03;12.70;;;7.30;;
27804;SDS011;15183;51.350;11.102;2023-01-16T13:39:39;10.00;;;5.80;;
27804;SDS011;15183;51.350;11.102;2023-01-16T13:42:51;6.93;;;4.03;;
27804;SDS011;15183;51.350;11.102;2023-01-16T13:45:44;11.32;;;6.72;;
27804;SDS011;15183;51.350;11.102;2023-01-16T13:48:19;9.75;;;5.00;;
27804;SDS011;15183;51.350;11.102;2023-01-16T13:50:59;4.13;;;2.47;;
27804;SDS011;15183;51.350;11.102;2023-01-16T13:53:29;4.18;;;2.58;;
27804;SDS011;15183;51.350;11.102;2023-01-16T13:56:04;9.40;;;4.13;;
27804;SDS011;15183;51.350;11.102;2023-01-16T13:58:57;6.78;;;3.03;;
27804;SDS011;15183;51.350;11.102;2023-01-16T14:01:53;7.80;;;4.97;;
27804;SDS011;15183;51.350;11.102;2023-01-16T14:06:58;6.40;;;3.92;;
27804;SDS011;15183;51.350;11.102;2023-01-16T14:12:43;6.68;;;3.95;;
27804;SDS011;15183;51.350;11.102;2023-01-16T14:15:47;4.97;;;3.20;;
27804;SDS011;15183;51.350;11.102;2023-01-16T14:24:18;5.25;;;3.45;;
27804;SDS011;15183;51.350;11.102;2023-01-16T14:26:48;4.95;;;2.28;;
27804;SDS011;15183;51.350;11.102;2023-01-16T14:29:28;4.45;;;3.13;;
27804;SDS011;15183;51.350;11.102;2023-01-16T14:32:04;6.72;;;4.25;;
27804;SDS011;15183;51.350;11.102;2023-01-16T14:37:28;7.03;;;3.78;;
27804;SDS011;15183;51.350;11.102;2023-01-16T14:42:50;4.88;;;3.25;;
27804;SDS011;15183;51.350;11.102;2023-01-16T14:45:40;4.25;;;2.53;;
27804;SDS011;15183;51.350;11.102;2023-01-16T14:48:46;4.72;;;3.40;;
27804;SDS011;15183;51.350;11.102;2023-01-16T14:51:31;5.55;;;3.30;;
27804;SDS011;15183;51.350;11.102;2023-01-16T14:54:23;5.07;;;3.22;;
27804;SDS011;15183;51.350;11.102;2023-01-16T14:57:18;7.47;;;4.50;;
27804;SDS011;15183;51.350;11.102;2023-01-16T15:02:53;5.18;;;2.50;;
27804;SDS011;15183;51.350;11.102;2023-01-16T15:05:39;10.10;;;4.78;;
27804;SDS011;15183;51.350;11.102;2023-01-16T15:08:25;8.68;;;4.90;;
27804;SDS011;15183;51.350;11.102;2023-01-16T15:10:57;10.57;;;5.53;;
27804;SDS011;15183;51.350;11.102;2023-01-16T15:14:16;6.35;;;3.70;;
27804;SDS011;15183;51.350;11.102;2023-01-16T15:16:57;7.53;;;4.68;;
27804;SDS011;15183;51.350;11.102;2023-01-16T15:23:14;8.52;;;4.63;;
27804;SDS011;15183;51.350;11.102;2023-01-16T15:32:01;7.53;;;4.28;;
27804;SDS011;15183;51.350;11.102;2023-01-16T15:34:46;9.27;;;3.95;;
27804;SDS011;15183;51.350;11.102;2023-01-16T15:37:28;10.35;;;6.25;;
27804;SDS011;15183;51.350;11.102;2023-01-16T15:39:56;15.25;;;8.07;;
27804;SDS011;15183;51.350;11.102;2023-01-16T15:42:29;8.18;;;3.97;;
27804;SDS011;15183;51.350;11.102;2023-01-16T15:45:19;12.70;;;6.68;;
27804;SDS011;15183;51.350;11.102;2023-01-16T15:51:24;9.68;;;5.35;;
27804;SDS011;15183;51.350;11.102;2023-01-16T15:53:50;8.52;;;4.70;;
27804;SDS011;15183;51.350;11.102;2023-01-16T15:58:53;10.65;;;5.90;;
27804;SDS011;15183;51.350;11.102;2023-01-16T16:01:24;8.25;;;3.90;;
27804;SDS011;15183;51.350;11.102;2023-01-16T16:04:00;8.27;;;4.07;;
27804;SDS011;15183;51.350;11.102;2023-01-16T16:06:29;6.05;;;3.38;;
27804;SDS011;15183;51.350;11.102;2023-01-16T16:08:56;4.78;;;2.97;;
27804;SDS011;15183;51.350;11.102;2023-01-16T16:11:29;4.68;;;3.28;;
27804;SDS011;15183;51.350;11.102;2023-01-16T16:17:25;12.20;;;5.95;;
27804;SDS011;15183;51.350;11.102;2023-01-16T16:23:14;3.00;;;2.17;;
27804;SDS011;15183;51.350;11.102;2023-01-16T16:25:59;8.07;;;3.92;;
27804;SDS011;15183;51.350;11.102;2023-01-16T16:28:37;7.53;;;4.53;;
27804;SDS011;15183;51.350;11.102;2023-01-16T16:33:55;9.73;;;5.40;;
27804;SDS011;15183;51.350;11.102;2023-01-16T16:36:44;9.70;;;5.80;;
27804;SDS011;15183;51.350;11.102;2023-01-16T16:41:59;6.57;;;3.92;;
27804;SDS011;15183;51.350;11.102;2023-01-16T16:44:46;11.55;;;5.43;;
27804;SDS011;15183;51.350;11.102;2023-01-16T16:47:35;9.95;;;5.43;;
27804;SDS011;15183;51.350;11.102;2023-01-16T16:53:10;8.30;;;4.80;;
27804;SDS011;15183;51.350;11.102;2023-01-16T16:56:08;6.35;;;3.78;;
27804;SDS011;15183;51.350;11.102;2023-01-16T16:58:44;6.88;;;4.47;;
27804;SDS011;15183;51.350;11.102;2023-01-16T17:01:14;8.15;;;4.20;;
27804;SDS011;15183;51.350;11.102;2023-01-16T17:03:42;4.88;;;3.20;;
27804;SDS011;15183;51.350;11.102;2023-01-16T17:06:10;6.03;;;4.07;;
27804;SDS011;15183;51.350;11.102;2023-01-16T17:08:42;7.65;;;4.88;;
27804;SDS011;15183;51.350;11.102;2023-01-16T17:11:10;5.65;;;3.53;;
27804;SDS011;15183;51.350;11.102;2023-01-16T17:13:38;8.80;;;4.68;;
27804;SDS011;15183;51.350;11.102;2023-01-16T17:16:05;7.03;;;4.53;;
27804;SDS011;15183;51.350;11.102;2023-01-16T17:21:07;12.02;;;5.65;;
27804;SDS011;15183;51.350;11.102;2023-01-16T17:23:35;5.78;;;3.42;;
27804;SDS011;15183;51.350;11.102;2023-01-16T17:26:01;6.90;;;4.13;;
27804;SDS011;15183;51.350;11.102;2023-01-16T17:28:28;5.85;;;3.95;;
27804;SDS011;15183;51.350;11.102;2023-01-16T17:30:55;6.93;;;4.75;;
27804;SDS011;15183;51.350;11.102;2023-01-16T17:33:21;9.23;;;4.00;;
27804;SDS011;15183;51.350;11.102;2023-01-16T17:35:48;10.73;;;5.60;;
27804;SDS011;15183;51.350;11.102;2023-01-16T17:38:24;9.25;;;5.55;;
27804;SDS011;15183;51.350;11.102;2023-01-16T17:40:51;9.07;;;6.18;;
27804;SDS011;15183;51.350;11.102;2023-01-16T17:43:18;9.13;;;4.78;;
27804;SDS011;15183;51.350;11.102;2023-01-16T17:46:12;8.77;;;4.65;;
27804;SDS011;15183;51.350;11.102;2023-01-16T17:48:41;8.00;;;4.93;;